createdAt,value
2019-04-10T00:01:58.088Z,49.90
2019-04-10T00:07:10.367Z,50.10
2019-04-10T00:12:05.311Z,50.00
2019-04-10T00:17:07.152Z,50.20
2019-04-10T00:22:09.688Z,50.10
2019-04-10T00:27:12.459Z,50.20
2019-04-10T00:32:14.460Z,50.10
2019-04-10T00:37:23.955Z,50.20
2019-04-10T00:42:20.967Z,50.10
2019-04-10T00:47:23.279Z,50.20
2019-04-10T00:52:25.233Z,50.10
2019-04-10T00:57:27.524Z,50.20
2019-04-10T01:02:29.193Z,50.20
2019-04-10T01:07:36.662Z,50.20
2019-04-10T01:12:34.318Z,50.30
2019-04-10T01:17:36.040Z,50.30
2019-04-10T01:22:37.671Z,50.50
2019-04-10T01:27:41.000Z,50.30
2019-04-10T01:32:43.872Z,50.50
2019-04-10T01:37:51.823Z,50.40
2019-04-10T01:43:02.394Z,50.40
2019-04-10T01:47:53.297Z,50.40
2019-04-10T01:52:55.541Z,50.60
2019-04-10T01:57:58.858Z,51.20
2019-04-10T02:03:01.389Z,50.60
2019-04-10T02:08:09.003Z,50.50
2019-04-10T02:13:07.396Z,50.60
2019-04-10T02:18:09.057Z,50.70
2019-04-10T02:23:10.689Z,50.60
2019-04-10T02:28:13.076Z,50.70
2019-04-10T02:33:15.896Z,50.70
2019-04-10T02:38:35.790Z,50.60
2019-04-10T02:43:21.282Z,50.70
2019-04-10T02:48:23.497Z,50.70
2019-04-10T02:53:25.648Z,50.70
2019-04-10T02:58:27.590Z,50.60
2019-04-10T03:03:29.986Z,50.70
2019-04-10T03:08:44.782Z,50.70
2019-04-10T03:13:35.886Z,50.70
2019-04-10T03:18:37.648Z,50.70
2019-04-10T03:23:40.344Z,50.70
2019-04-10T03:28:43.004Z,50.70
2019-04-10T03:33:50.510Z,50.80
2019-04-10T03:38:58.601Z,50.70
2019-04-10T03:43:56.441Z,50.80
2019-04-10T03:48:58.161Z,50.70
2019-04-10T03:53:59.802Z,51.30
2019-04-10T03:59:02.240Z,51.60
2019-04-10T04:04:04.955Z,51.60
2019-04-10T04:09:10.911Z,51.70
2019-04-10T04:14:10.353Z,48.80
2019-04-10T04:19:12.184Z,45.50
2019-04-10T04:24:13.831Z,49.00
2019-04-10T04:29:16.426Z,49.20
2019-04-10T04:34:18.644Z,49.40
2019-04-10T04:39:26.412Z,50.10
2019-04-10T04:44:24.200Z,49.80
2019-04-10T04:49:26.409Z,49.80
2019-04-10T04:54:28.888Z,50.10
2019-04-10T04:59:30.725Z,50.50
2019-04-10T05:04:33.666Z,50.70
2019-04-10T05:09:38.763Z,50.70
2019-04-10T05:14:39.907Z,50.70
2019-04-10T05:19:42.906Z,50.30
2019-04-10T05:24:44.694Z,50.20
2019-04-10T05:29:47.141Z,50.20
2019-04-10T05:34:48.842Z,50.30
2019-04-10T05:39:52.181Z,50.10
2019-04-10T05:44:54.448Z,50.10
2019-04-10T05:49:56.158Z,50.10
2019-04-10T05:54:57.862Z,49.90
2019-04-10T06:00:00.495Z,49.80
2019-04-10T06:05:04.244Z,49.90
2019-04-10T06:10:09.027Z,49.90
2019-04-10T06:15:10.737Z,49.80
2019-04-10T06:20:14.156Z,50.00
2019-04-10T06:25:18.832Z,49.90
2019-04-10T06:30:20.601Z,49.90
2019-04-10T06:35:22.217Z,49.70
2019-04-10T06:40:25.824Z,49.90
2019-04-10T06:45:28.003Z,49.80
2019-04-10T06:50:30.486Z,49.70
2019-04-10T06:55:33.255Z,49.70
2019-04-10T07:00:35.220Z,49.60
2019-04-10T07:05:46.899Z,49.90
2019-04-10T07:10:49.905Z,49.70
2019-04-10T07:15:46.609Z,49.80
2019-04-10T07:20:48.980Z,49.70
2019-04-10T07:25:51.979Z,49.60
2019-04-10T07:30:56.834Z,49.60
2019-04-10T07:35:57.868Z,49.40
2019-04-10T07:40:59.531Z,49.50
2019-04-10T07:46:01.207Z,49.30
2019-04-10T07:51:02.947Z,49.40
2019-04-10T07:56:09.127Z,49.20
2019-04-10T08:01:08.572Z,49.20
2019-04-10T08:06:11.083Z,49.40
2019-04-10T08:11:13.967Z,49.20
2019-04-10T08:16:16.961Z,49.10
2019-04-10T08:21:19.782Z,49.20
2019-04-10T08:26:22.714Z,49.20
2019-04-10T08:31:25.318Z,49.10
2019-04-10T08:36:28.164Z,48.90
2019-04-10T08:41:30.035Z,48.80
2019-04-10T08:46:31.602Z,48.90
2019-04-10T08:51:33.236Z,48.90
2019-04-10T08:56:35.047Z,49.00
2019-04-10T09:01:37.643Z,49.20
2019-04-10T09:06:39.844Z,49.00
2019-04-10T09:11:43.045Z,48.80
2019-04-10T09:16:44.879Z,48.60
2019-04-10T09:21:46.520Z,48.60
2019-04-10T09:26:48.684Z,48.80
2019-04-10T09:31:50.530Z,48.80
2019-04-10T09:36:52.090Z,48.70
2019-04-10T09:41:54.344Z,48.70
2019-04-10T09:46:56.158Z,48.70
2019-04-10T09:51:58.623Z,48.70
2019-04-10T09:57:01.258Z,48.60
2019-04-10T10:02:03.210Z,48.70
2019-04-10T10:07:05.601Z,48.60
2019-04-10T10:12:07.445Z,48.60
2019-04-10T10:17:09.109Z,48.60
2019-04-10T10:22:10.825Z,48.60
2019-04-10T10:27:13.550Z,48.60
2019-04-10T10:32:15.292Z,49.30
2019-04-10T10:37:16.871Z,48.70
2019-04-10T10:42:19.321Z,48.60
2019-04-10T10:47:22.231Z,48.50
2019-04-10T10:52:24.065Z,48.60
2019-04-10T10:57:26.896Z,48.60
2019-04-10T11:02:29.659Z,48.60
2019-04-10T11:07:31.496Z,48.40
2019-04-10T11:12:34.166Z,48.20
2019-04-10T11:17:36.288Z,48.20
2019-04-10T11:22:39.730Z,48.40
2019-04-10T11:27:42.569Z,48.50
2019-04-10T11:32:44.553Z,48.60
2019-04-10T11:37:49.648Z,48.40
2019-04-10T11:42:51.524Z,48.40
2019-04-10T11:47:53.459Z,48.40
2019-04-10T11:52:56.746Z,48.40
2019-04-10T11:57:59.964Z,48.30
2019-04-10T12:03:01.726Z,48.50
2019-04-10T12:13:08.175Z,48.50
2019-04-10T12:18:10.681Z,48.60
2019-04-10T12:23:12.680Z,48.60
2019-04-10T12:28:14.395Z,48.60
2019-04-10T12:33:17.111Z,48.60
2019-04-10T12:38:19.332Z,48.60
2019-04-10T12:43:21.041Z,48.50
2019-04-10T12:48:23.059Z,48.50
2019-04-10T12:53:24.915Z,48.50
2019-04-10T12:58:26.691Z,46.00
2019-04-10T13:03:29.429Z,47.60
2019-04-10T13:08:51.524Z,48.10
2019-04-10T13:13:35.830Z,48.30
2019-04-10T13:18:38.592Z,48.60
2019-04-10T13:23:41.217Z,48.70
2019-04-10T13:28:43.980Z,49.00
2019-04-10T13:33:45.597Z,48.80
2019-04-10T13:38:48.857Z,50.10
2019-04-10T13:43:52.532Z,50.00
2019-04-10T13:48:55.580Z,49.40
2019-04-10T13:53:58.455Z,50.80
2019-04-10T13:59:00.594Z,50.10
2019-04-10T14:04:02.961Z,51.30
2019-04-10T14:09:26.355Z,50.80
2019-04-10T14:14:16.221Z,50.50
2019-04-10T14:19:17.964Z,50.70
2019-04-10T14:24:20.078Z,51.40
2019-04-10T14:29:24.693Z,49.20
2019-04-10T14:34:28.406Z,50.40
2019-04-10T14:39:31.329Z,49.60
2019-04-10T14:44:33.348Z,50.90
2019-04-10T14:49:35.472Z,51.40
2019-04-10T14:54:37.596Z,52.20
2019-04-10T14:59:40.002Z,52.20
2019-04-10T15:04:41.812Z,52.10
2019-04-10T15:09:45.239Z,52.90
2019-04-10T15:14:47.831Z,53.60
2019-04-10T15:19:51.892Z,54.10
2019-04-10T15:25:06.867Z,53.40
2019-04-10T15:30:08.672Z,54.60
2019-04-10T15:35:10.511Z,54.90
2019-04-10T15:40:19.916Z,54.40
2019-04-10T15:45:16.451Z,57.10
2019-04-10T15:50:18.143Z,57.60
2019-04-10T15:55:20.102Z,57.20
2019-04-10T16:00:23.193Z,54.30
2019-04-10T16:05:25.801Z,55.00
2019-04-10T16:10:30.943Z,53.90
2019-04-10T16:15:34.658Z,53.60
2019-04-10T16:20:36.930Z,53.50
2019-04-10T16:25:40.581Z,53.60
2019-04-10T16:30:43.224Z,53.70
2019-04-10T16:35:46.286Z,55.10
2019-04-10T16:40:48.140Z,54.60
2019-04-10T16:45:50.980Z,52.50
2019-04-10T16:50:53.889Z,54.20
2019-04-10T16:55:56.920Z,52.20
2019-04-10T17:00:58.964Z,51.80
2019-04-10T17:06:01.899Z,52.50
2019-04-10T17:11:05.324Z,53.20
2019-04-10T17:16:07.349Z,45.70
2019-04-10T17:21:09.110Z,44.80
2019-04-10T17:26:12.829Z,45.40
2019-04-10T17:31:16.235Z,46.70
2019-04-10T17:36:18.915Z,46.70
2019-04-10T17:41:21.860Z,47.20
2019-04-10T17:46:24.888Z,47.70
2019-04-10T17:51:28.299Z,48.10
2019-04-10T17:56:30.525Z,48.20
2019-04-10T18:01:33.100Z,48.20
2019-04-10T18:06:35.302Z,48.30
2019-04-10T18:11:37.447Z,48.50
2019-04-10T18:16:40.134Z,50.40
2019-04-10T18:21:44.171Z,48.60
2019-04-10T18:26:45.716Z,49.20
2019-04-10T18:31:47.424Z,49.50
2019-04-10T18:36:50.741Z,49.50
2019-04-10T18:41:52.665Z,49.70
2019-04-10T18:46:54.396Z,49.90
2019-04-10T18:51:56.337Z,50.00
2019-04-10T18:56:58.136Z,48.40
2019-04-10T19:02:18.703Z,46.10
2019-04-10T19:07:21.241Z,44.60
2019-04-10T19:12:23.014Z,46.20
2019-04-10T19:17:24.659Z,46.90
2019-04-10T19:22:26.458Z,47.20
2019-04-10T19:27:29.232Z,47.40
2019-04-10T19:32:33.307Z,47.80
2019-04-10T19:37:36.724Z,47.80
2019-04-10T19:42:39.745Z,47.80
2019-04-10T19:47:42.248Z,47.80
2019-04-10T19:52:44.633Z,47.80
2019-04-10T19:57:47.743Z,47.80
2019-04-10T20:02:49.649Z,47.60
2019-04-10T20:07:51.434Z,47.60
2019-04-10T20:12:53.295Z,47.60
2019-04-10T20:17:55.077Z,47.60
2019-04-10T20:22:56.842Z,47.60
2019-04-10T20:27:58.623Z,47.60
2019-04-10T20:33:00.734Z,47.70
2019-04-10T20:38:03.087Z,47.90
2019-04-10T20:43:04.966Z,48.10
2019-04-10T20:48:06.642Z,48.30
2019-04-10T20:53:09.538Z,48.20
2019-04-10T20:58:11.384Z,48.00
2019-04-10T21:03:13.519Z,47.90
2019-04-10T21:08:15.740Z,47.90
2019-04-10T21:13:17.542Z,47.80
2019-04-10T21:18:19.491Z,47.90
2019-04-10T21:23:22.326Z,48.10
2019-04-10T21:28:23.991Z,48.60
2019-04-10T21:33:28.513Z,48.00
2019-04-10T21:38:30.297Z,47.90
2019-04-10T21:43:31.858Z,47.80
2019-04-10T21:48:33.648Z,47.80
2019-04-10T21:53:35.975Z,47.80
2019-04-10T21:58:38.937Z,47.60
2019-04-10T22:03:41.475Z,47.70
2019-04-10T22:08:49.745Z,47.70
2019-04-10T22:13:52.680Z,47.80
2019-04-10T22:18:54.625Z,47.70
2019-04-10T22:23:56.687Z,47.70
2019-04-10T22:28:58.482Z,47.60
2019-04-10T22:34:00.821Z,47.60
2019-04-10T22:39:04.659Z,47.60
2019-04-10T22:44:08.289Z,47.60
2019-04-10T22:49:10.403Z,47.60
2019-04-10T22:54:13.417Z,47.60
2019-04-10T22:59:16.128Z,47.60
2019-04-10T23:04:17.955Z,47.60
2019-04-10T23:09:20.208Z,47.60
2019-04-10T23:14:22.751Z,47.60
2019-04-10T23:19:25.733Z,47.60
2019-04-10T23:24:27.751Z,47.60
2019-04-10T23:29:30.868Z,47.60
2019-04-10T23:34:32.801Z,47.60
2019-04-10T23:39:34.497Z,47.60
2019-04-10T23:44:37.391Z,47.50
2019-04-10T23:49:39.565Z,47.60
2019-04-10T23:54:41.621Z,47.60
2019-04-10T23:59:43.359Z,48.20
